createdAt,value
2017-08-23T00:00:36.239Z,0
2017-08-23T00:01:38.297Z,0
2017-08-23T00:02:40.224Z,0
2017-08-23T00:03:42.262Z,0
2017-08-23T00:04:44.180Z,0
2017-08-23T00:05:45.906Z,0
2017-08-23T00:06:47.668Z,0
2017-08-23T00:07:49.426Z,0
2017-08-23T00:08:51.147Z,0
2017-08-23T00:09:52.905Z,0
2017-08-23T00:10:54.575Z,0
2017-08-23T00:11:56.347Z,0
2017-08-23T00:12:58.154Z,0
2017-08-23T00:13:59.883Z,0
2017-08-23T00:15:01.616Z,0
2017-08-23T00:16:03.368Z,0
2017-08-23T00:17:05.155Z,0
2017-08-23T00:18:06.991Z,0
2017-08-23T00:19:08.727Z,0
2017-08-23T00:20:10.576Z,0
2017-08-23T00:21:12.380Z,0
2017-08-23T00:22:14.404Z,0
2017-08-23T00:23:16.078Z,0
2017-08-23T00:24:17.739Z,0
2017-08-23T00:25:19.438Z,0
2017-08-23T00:26:21.283Z,0
2017-08-23T00:27:23.043Z,0
2017-08-23T00:28:25.042Z,0
2017-08-23T00:29:26.826Z,0
2017-08-23T00:30:28.685Z,0
2017-08-23T00:31:30.526Z,0
2017-08-23T00:32:32.258Z,0
2017-08-23T00:33:34.140Z,0
2017-08-23T00:34:35.952Z,0
2017-08-23T00:35:37.944Z,0
2017-08-23T00:36:39.955Z,0
2017-08-23T00:37:41.796Z,0
2017-08-23T00:38:43.651Z,0
2017-08-23T00:39:45.329Z,0
2017-08-23T00:40:47.141Z,0
2017-08-23T00:41:48.920Z,0
2017-08-23T00:42:51.009Z,0
2017-08-23T00:43:52.921Z,0
2017-08-23T00:44:54.835Z,0
2017-08-23T00:45:56.697Z,0
2017-08-23T00:46:58.948Z,0
2017-08-23T00:48:00.702Z,0
2017-08-23T00:49:02.550Z,0
2017-08-23T00:50:04.223Z,0
2017-08-23T00:51:05.948Z,0
2017-08-23T00:52:07.683Z,0
2017-08-23T00:53:09.333Z,0
2017-08-23T00:54:11.086Z,0
2017-08-23T00:55:12.859Z,0
2017-08-23T00:56:14.657Z,0
2017-08-23T00:57:16.406Z,0
2017-08-23T00:58:18.210Z,0
2017-08-23T00:59:20.013Z,0
2017-08-23T01:00:21.681Z,0
2017-08-23T01:01:23.432Z,0
2017-08-23T01:02:25.170Z,0
2017-08-23T01:03:27.006Z,0
2017-08-23T01:04:28.751Z,0
2017-08-23T01:05:30.448Z,0
2017-08-23T01:06:32.227Z,0
2017-08-23T01:07:34.050Z,0
2017-08-23T01:08:35.874Z,0
2017-08-23T01:09:37.601Z,0
2017-08-23T01:10:39.512Z,0
2017-08-23T01:11:41.274Z,0
2017-08-23T01:12:43.057Z,0
2017-08-23T01:13:44.846Z,0
2017-08-23T01:14:46.639Z,0
2017-08-23T01:15:48.342Z,0
2017-08-23T01:16:50.101Z,0
2017-08-23T01:17:51.958Z,0
2017-08-23T01:18:53.898Z,0
2017-08-23T01:19:55.727Z,0
2017-08-23T01:20:57.463Z,0
2017-08-23T01:21:59.580Z,0
2017-08-23T01:23:01.522Z,0
2017-08-23T01:24:03.283Z,0
2017-08-23T01:25:05.018Z,0
2017-08-23T01:26:06.894Z,0
2017-08-23T01:27:08.713Z,0
2017-08-23T01:28:10.587Z,0
2017-08-23T01:29:12.386Z,0
2017-08-23T01:30:14.201Z,0
2017-08-23T01:31:16.030Z,0
2017-08-23T01:32:17.934Z,0
2017-08-23T01:33:19.664Z,0
2017-08-23T01:34:21.667Z,0
2017-08-23T01:35:23.345Z,0
2017-08-23T01:36:25.101Z,0
2017-08-23T01:37:26.855Z,0
2017-08-23T01:38:28.616Z,0
2017-08-23T01:39:30.332Z,0
2017-08-23T01:40:32.201Z,0
2017-08-23T01:41:33.889Z,0
2017-08-23T01:42:35.710Z,0
2017-08-23T01:43:37.408Z,0
2017-08-23T01:44:39.229Z,0
2017-08-23T01:45:40.901Z,0
2017-08-23T01:46:42.559Z,0
2017-08-23T01:47:44.212Z,0
2017-08-23T01:48:45.970Z,0
2017-08-23T01:49:47.697Z,0
2017-08-23T01:50:49.407Z,0
2017-08-23T01:51:51.026Z,0
2017-08-23T01:52:52.638Z,0
2017-08-23T01:53:54.352Z,0
2017-08-23T01:54:56.059Z,0
2017-08-23T01:55:57.863Z,0
2017-08-23T01:56:59.443Z,0
2017-08-23T01:58:01.139Z,0
2017-08-23T01:59:02.738Z,0
2017-08-23T02:00:04.458Z,0
2017-08-23T02:01:06.034Z,0
2017-08-23T02:02:07.620Z,0
2017-08-23T02:03:09.203Z,0
2017-08-23T02:04:10.851Z,0
2017-08-23T02:05:12.529Z,0
2017-08-23T02:06:14.259Z,0
2017-08-23T02:07:15.974Z,0
2017-08-23T02:08:17.638Z,0
2017-08-23T02:09:19.311Z,0
2017-08-23T02:10:20.936Z,0
2017-08-23T02:11:22.568Z,0
2017-08-23T02:12:24.248Z,0
2017-08-23T02:13:25.967Z,0
2017-08-23T02:14:27.684Z,0
2017-08-23T02:15:29.406Z,0
2017-08-23T02:16:31.064Z,0
2017-08-23T02:17:32.805Z,0
2017-08-23T02:18:34.524Z,0
2017-08-23T02:19:36.152Z,0
2017-08-23T02:20:37.798Z,0
2017-08-23T02:21:39.487Z,0
2017-08-23T02:22:41.092Z,0
2017-08-23T02:23:42.742Z,0
2017-08-23T02:24:44.389Z,0
2017-08-23T02:25:46.031Z,0
2017-08-23T02:26:47.675Z,0
2017-08-23T02:27:49.412Z,0
2017-08-23T02:28:51.108Z,0
2017-08-23T02:29:52.754Z,0
2017-08-23T02:30:54.460Z,0
2017-08-23T02:31:56.207Z,0
2017-08-23T02:32:57.802Z,0
2017-08-23T02:33:59.462Z,0
2017-08-23T02:35:01.186Z,0
2017-08-23T02:36:02.899Z,0
2017-08-23T02:37:04.651Z,0
2017-08-23T02:38:06.304Z,0
2017-08-23T02:39:07.954Z,0
2017-08-23T02:40:09.630Z,0
2017-08-23T02:41:11.245Z,0
2017-08-23T02:42:12.868Z,0
2017-08-23T02:43:14.501Z,0
2017-08-23T02:44:16.136Z,0
2017-08-23T02:45:18.179Z,0
2017-08-23T02:46:20.055Z,0
2017-08-23T02:47:21.840Z,0
2017-08-23T02:48:23.607Z,0
2017-08-23T02:49:25.231Z,0
2017-08-23T02:50:27.011Z,0
2017-08-23T02:51:28.538Z,0
2017-08-23T02:52:30.168Z,0
2017-08-23T02:53:31.746Z,0
2017-08-23T02:54:33.471Z,0
2017-08-23T02:55:35.115Z,0
2017-08-23T02:56:36.730Z,0
2017-08-23T02:57:38.362Z,0
2017-08-23T02:58:39.931Z,0
2017-08-23T02:59:41.575Z,0
2017-08-23T03:00:43.311Z,0
2017-08-23T03:01:44.989Z,0
2017-08-23T03:02:46.703Z,0
2017-08-23T03:03:48.530Z,0
2017-08-23T03:04:50.155Z,0
2017-08-23T03:05:51.882Z,0
2017-08-23T03:06:53.524Z,0
2017-08-23T03:07:55.116Z,0
2017-08-23T03:08:56.843Z,0
2017-08-23T03:09:58.572Z,0
2017-08-23T03:11:00.180Z,0
2017-08-23T03:12:01.799Z,0
2017-08-23T03:13:03.561Z,0
2017-08-23T03:14:05.500Z,0
2017-08-23T03:15:07.311Z,0
2017-08-23T03:16:09.092Z,0
2017-08-23T03:17:10.742Z,0
2017-08-23T03:18:12.347Z,0
2017-08-23T03:19:14.014Z,0
2017-08-23T03:20:15.718Z,0
2017-08-23T03:21:17.392Z,0
2017-08-23T03:22:19.087Z,0
2017-08-23T03:23:20.739Z,0
2017-08-23T03:24:22.445Z,0
2017-08-23T03:25:24.129Z,0
2017-08-23T03:26:25.794Z,0
2017-08-23T03:27:27.570Z,0
2017-08-23T03:28:29.296Z,0
2017-08-23T03:29:30.879Z,0
2017-08-23T03:30:32.509Z,0
2017-08-23T03:31:34.063Z,0
2017-08-23T03:32:35.822Z,0
2017-08-23T03:33:37.402Z,0
2017-08-23T03:34:39.027Z,0
2017-08-23T03:35:40.711Z,0
2017-08-23T03:36:42.317Z,0
2017-08-23T03:37:44.044Z,0
2017-08-23T03:38:45.686Z,0
2017-08-23T03:39:47.273Z,0
2017-08-23T03:40:49.020Z,0
2017-08-23T03:41:50.818Z,0
2017-08-23T03:42:52.481Z,0
2017-08-23T03:43:54.218Z,0
2017-08-23T03:44:56.084Z,0
2017-08-23T03:45:57.850Z,0
2017-08-23T03:46:59.459Z,0
2017-08-23T03:48:01.079Z,0
2017-08-23T03:49:02.667Z,0
2017-08-23T03:50:04.358Z,0
2017-08-23T03:51:06.226Z,0
2017-08-23T03:52:08.080Z,0
2017-08-23T03:53:15.646Z,0
2017-08-23T03:54:17.227Z,0
2017-08-23T03:55:18.829Z,0
2017-08-23T03:56:20.560Z,0
2017-08-23T03:57:22.212Z,0
2017-08-23T03:58:23.996Z,0
2017-08-23T03:59:25.591Z,0
2017-08-23T04:00:27.266Z,0
2017-08-23T04:01:28.962Z,0
2017-08-23T04:02:30.690Z,0
2017-08-23T04:03:32.392Z,0
2017-08-23T04:04:34.123Z,0
2017-08-23T04:05:35.870Z,0
2017-08-23T04:06:37.469Z,0
2017-08-23T04:07:39.095Z,0
2017-08-23T04:08:40.800Z,0
2017-08-23T04:09:42.435Z,0
2017-08-23T04:10:44.149Z,0
2017-08-23T04:11:45.868Z,0
2017-08-23T04:12:47.597Z,0
2017-08-23T04:13:49.301Z,0
2017-08-23T04:14:51.076Z,0
2017-08-23T04:15:52.779Z,0
2017-08-23T04:16:54.478Z,0
2017-08-23T04:17:56.243Z,0
2017-08-23T04:18:57.938Z,0
2017-08-23T04:19:59.607Z,5
2017-08-23T04:21:01.415Z,5
2017-08-23T04:22:03.125Z,5
2017-08-23T04:23:04.782Z,5
2017-08-23T04:24:06.423Z,11
2017-08-23T04:25:08.017Z,11
2017-08-23T04:26:09.703Z,11
2017-08-23T04:27:11.343Z,16
2017-08-23T04:28:13.223Z,16
2017-08-23T04:29:14.899Z,16
2017-08-23T04:30:16.550Z,22
2017-08-23T04:31:18.294Z,22
2017-08-23T04:32:19.918Z,28
2017-08-23T04:33:21.498Z,28
2017-08-23T04:34:23.121Z,28
2017-08-23T04:35:24.717Z,28
2017-08-23T04:36:26.380Z,28
2017-08-23T04:37:28.047Z,33
2017-08-23T04:38:29.606Z,33
2017-08-23T04:39:31.341Z,39
2017-08-23T04:40:32.950Z,39
2017-08-23T04:41:34.541Z,39
2017-08-23T04:42:36.212Z,45
2017-08-23T04:43:37.882Z,45
2017-08-23T04:44:39.596Z,45
2017-08-23T04:45:41.166Z,50
2017-08-23T04:46:42.842Z,50
2017-08-23T04:47:44.474Z,56
2017-08-23T04:48:46.168Z,61
2017-08-23T04:49:47.856Z,61
2017-08-23T04:50:49.502Z,67
2017-08-23T04:51:51.138Z,67
2017-08-23T04:52:52.760Z,73
2017-08-23T04:53:54.417Z,78
2017-08-23T04:54:56.108Z,84
2017-08-23T04:55:57.789Z,84
2017-08-23T04:56:59.458Z,90
2017-08-23T04:58:01.109Z,90
2017-08-23T04:59:02.829Z,90
2017-08-23T05:00:04.452Z,90
2017-08-23T05:01:06.058Z,95
2017-08-23T05:02:07.722Z,95
2017-08-23T05:03:09.378Z,95
2017-08-23T05:04:11.059Z,101
2017-08-23T05:05:12.699Z,101
2017-08-23T05:06:14.293Z,106
2017-08-23T05:07:15.927Z,106
2017-08-23T05:08:17.683Z,112
2017-08-23T05:09:19.401Z,118
2017-08-23T05:10:21.077Z,118
2017-08-23T05:11:22.701Z,123
2017-08-23T05:12:24.369Z,123
2017-08-23T05:13:26.114Z,123
2017-08-23T05:14:27.823Z,129
2017-08-23T05:15:29.584Z,129
2017-08-23T05:16:31.267Z,135
2017-08-23T05:17:33.004Z,135
2017-08-23T05:18:34.571Z,140
2017-08-23T05:19:36.145Z,140
2017-08-23T05:20:37.865Z,146
2017-08-23T05:21:39.574Z,146
2017-08-23T05:22:41.200Z,151
2017-08-23T05:23:42.943Z,157
2017-08-23T05:24:44.618Z,163
2017-08-23T05:25:46.439Z,168
2017-08-23T05:26:48.159Z,174
2017-08-23T05:27:49.779Z,174
2017-08-23T05:28:51.415Z,180
2017-08-23T05:29:53.193Z,180
2017-08-23T05:30:54.859Z,185
2017-08-23T05:31:56.552Z,185
2017-08-23T05:32:58.202Z,191
2017-08-23T05:33:59.910Z,196
2017-08-23T05:35:01.575Z,202
2017-08-23T05:36:03.233Z,202
2017-08-23T05:37:04.889Z,208
2017-08-23T05:38:06.613Z,213
2017-08-23T05:39:08.411Z,213
2017-08-23T05:40:10.146Z,219
2017-08-23T05:41:11.774Z,219
2017-08-23T05:42:13.490Z,225
2017-08-23T05:43:15.169Z,225
2017-08-23T05:44:16.791Z,225
2017-08-23T05:45:18.471Z,230
2017-08-23T05:46:20.197Z,230
2017-08-23T05:47:21.799Z,236
2017-08-23T05:48:23.652Z,236
2017-08-23T05:49:25.343Z,236
2017-08-23T05:50:26.996Z,241
2017-08-23T05:51:28.625Z,241
2017-08-23T05:52:30.263Z,247
2017-08-23T05:53:31.961Z,247
2017-08-23T05:54:33.627Z,253
2017-08-23T05:55:35.271Z,247
2017-08-23T05:56:36.932Z,253
2017-08-23T05:57:38.584Z,258
2017-08-23T05:58:40.265Z,258
2017-08-23T05:59:41.950Z,264
2017-08-23T06:00:43.492Z,270
2017-08-23T06:01:45.168Z,270
2017-08-23T06:02:46.819Z,275
2017-08-23T06:03:48.477Z,286
2017-08-23T06:04:50.100Z,281
2017-08-23T06:05:51.778Z,286
2017-08-23T06:06:53.443Z,292
2017-08-23T06:07:55.223Z,298
2017-08-23T06:08:56.898Z,303
2017-08-23T06:09:58.604Z,303
2017-08-23T06:11:00.352Z,309
2017-08-23T06:12:02.211Z,315
2017-08-23T06:13:03.935Z,315
2017-08-23T06:14:05.684Z,320
2017-08-23T06:15:07.341Z,326
2017-08-23T06:16:09.028Z,326
2017-08-23T06:17:10.654Z,331
2017-08-23T06:18:12.418Z,331
2017-08-23T06:19:14.130Z,337
2017-08-23T06:20:15.649Z,337
2017-08-23T06:21:17.257Z,337
2017-08-23T06:22:19.011Z,343
2017-08-23T06:23:20.638Z,337
2017-08-23T06:24:22.352Z,337
2017-08-23T06:25:24.061Z,337
2017-08-23T06:26:25.734Z,348
2017-08-23T06:27:27.380Z,483
2017-08-23T06:28:29.046Z,568
2017-08-23T06:29:30.742Z,765
2017-08-23T06:30:32.373Z,753
2017-08-23T06:31:34.000Z,810
2017-08-23T06:32:35.781Z,894
2017-08-23T06:33:37.616Z,1018
2017-08-23T06:34:39.474Z,1040
2017-08-23T06:35:41.192Z,1046
2017-08-23T06:36:42.759Z,1035
2017-08-23T06:37:44.470Z,1051
2017-08-23T06:38:46.084Z,1108
2017-08-23T06:39:47.771Z,1231
2017-08-23T06:40:49.517Z,1243
2017-08-23T06:41:51.179Z,1265
2017-08-23T06:42:52.836Z,1254
2017-08-23T06:43:54.542Z,1310
2017-08-23T06:44:56.560Z,1321
2017-08-23T06:45:58.229Z,1338
2017-08-23T06:46:59.822Z,1271
2017-08-23T06:48:01.754Z,1260
2017-08-23T06:49:03.315Z,1276
2017-08-23T06:50:05.088Z,1288
2017-08-23T06:51:06.611Z,1282
2017-08-23T06:52:08.291Z,1271
2017-08-23T06:53:09.903Z,1305
2017-08-23T06:54:11.593Z,1372
2017-08-23T06:55:13.234Z,1400
2017-08-23T06:56:15.012Z,1411
2017-08-23T06:57:16.736Z,1406
2017-08-23T06:58:18.457Z,1400
2017-08-23T06:59:20.085Z,1395
2017-08-23T07:00:21.786Z,1423
2017-08-23T07:01:49.931Z,0
2017-08-23T07:02:51.613Z,0
2017-08-23T07:03:53.268Z,0
2017-08-23T07:04:54.954Z,0
2017-08-23T07:05:56.638Z,0
2017-08-23T07:06:58.416Z,0
2017-08-23T07:08:00.069Z,0
2017-08-23T07:09:01.868Z,0
2017-08-23T07:10:03.508Z,0
2017-08-23T07:11:05.080Z,0
2017-08-23T07:12:06.729Z,0
2017-08-23T07:13:08.369Z,0
2017-08-23T07:14:10.072Z,0
2017-08-23T07:15:11.685Z,0
2017-08-23T07:16:13.421Z,0
2017-08-23T07:17:15.024Z,0
2017-08-23T07:18:16.581Z,0
2017-08-23T07:19:18.309Z,0
2017-08-23T07:20:19.925Z,0
2017-08-23T07:21:21.478Z,0
2017-08-23T07:22:23.094Z,0
2017-08-23T07:23:24.668Z,0
2017-08-23T07:24:26.210Z,0
2017-08-23T07:25:27.812Z,0
2017-08-23T07:26:29.519Z,0
2017-08-23T07:27:31.166Z,0
2017-08-23T07:28:33.321Z,0
2017-08-23T07:29:34.924Z,0
2017-08-23T07:30:36.563Z,0
2017-08-23T07:31:38.222Z,0
2017-08-23T07:32:39.814Z,0
2017-08-23T07:33:41.437Z,0
2017-08-23T07:34:43.210Z,0
2017-08-23T07:35:44.743Z,0
2017-08-23T07:36:46.315Z,0
2017-08-23T07:37:47.954Z,0
2017-08-23T07:38:49.565Z,0
2017-08-23T07:39:51.269Z,0
2017-08-23T07:40:52.998Z,0
2017-08-23T07:41:54.622Z,0
2017-08-23T07:42:56.409Z,0
2017-08-23T07:43:58.168Z,0
2017-08-23T07:44:59.888Z,0
2017-08-23T07:46:01.540Z,0
2017-08-23T07:47:03.282Z,0
2017-08-23T07:48:04.996Z,0
2017-08-23T07:49:06.685Z,0
2017-08-23T07:50:08.290Z,0
2017-08-23T07:51:09.926Z,0
2017-08-23T07:52:11.594Z,0
2017-08-23T07:53:13.354Z,0
2017-08-23T07:54:14.976Z,0
2017-08-23T07:55:16.703Z,0
2017-08-23T07:56:18.433Z,0
2017-08-23T07:57:20.113Z,0
2017-08-23T07:58:21.975Z,0
2017-08-23T07:59:23.692Z,0
2017-08-23T08:00:25.564Z,0
2017-08-23T08:01:51.941Z,2131
2017-08-23T08:02:53.661Z,1951
2017-08-23T08:03:55.395Z,1710
2017-08-23T08:04:57.160Z,1828
2017-08-23T08:05:58.873Z,2019
2017-08-23T08:07:00.624Z,1957
2017-08-23T08:08:02.426Z,1951
2017-08-23T08:09:04.670Z,2160
2017-08-23T08:10:06.869Z,2115
2017-08-23T08:11:08.623Z,2103
2017-08-23T08:12:10.316Z,2205
2017-08-23T08:13:12.043Z,2244
2017-08-23T08:14:13.744Z,2272
2017-08-23T08:15:15.460Z,2295
2017-08-23T08:16:17.147Z,2295
2017-08-23T08:17:18.857Z,2300
2017-08-23T08:18:20.642Z,2356
2017-08-23T08:19:22.375Z,2306
2017-08-23T08:20:24.041Z,2340
2017-08-23T08:21:25.697Z,2328
2017-08-23T08:22:27.341Z,2345
2017-08-23T08:23:29.047Z,2446
2017-08-23T08:24:30.789Z,2385
2017-08-23T08:25:32.557Z,2300
2017-08-23T08:26:34.168Z,2227
2017-08-23T08:27:35.757Z,2250
2017-08-23T08:28:37.449Z,2210
2017-08-23T08:29:39.098Z,2216
2017-08-23T08:30:40.742Z,2278
2017-08-23T08:31:42.446Z,2115
2017-08-23T08:32:44.084Z,1867
2017-08-23T08:33:47.083Z,1946
2017-08-23T08:34:49.230Z,2334
2017-08-23T08:35:51.036Z,2486
2017-08-23T08:36:52.657Z,2480
2017-08-23T08:37:54.379Z,2435
2017-08-23T08:38:56.149Z,2480
2017-08-23T08:39:57.798Z,2480
2017-08-23T08:40:59.441Z,2435
2017-08-23T08:42:01.266Z,2503
2017-08-23T08:43:03.025Z,2553
2017-08-23T08:44:04.732Z,2581
2017-08-23T08:45:06.405Z,2525
2017-08-23T08:46:08.102Z,2469
2017-08-23T08:47:09.763Z,2283
2017-08-23T08:48:11.442Z,2205
2017-08-23T08:49:13.047Z,2216
2017-08-23T08:50:14.671Z,2362
2017-08-23T08:51:16.355Z,2418
2017-08-23T08:52:18.059Z,2497
2017-08-23T08:53:19.710Z,2520
2017-08-23T08:54:21.310Z,2621
2017-08-23T08:55:22.901Z,2621
2017-08-23T08:56:24.475Z,2553
2017-08-23T08:57:26.182Z,2508
2017-08-23T08:58:27.793Z,2452
2017-08-23T08:59:29.454Z,2345
2017-08-23T09:00:31.141Z,2250
2017-08-23T09:01:50.092Z,0
2017-08-23T09:02:51.750Z,0
2017-08-23T09:03:53.425Z,0
2017-08-23T09:04:55.137Z,0
2017-08-23T09:05:56.787Z,0
2017-08-23T09:06:58.512Z,0
2017-08-23T09:08:00.209Z,0
2017-08-23T09:09:01.837Z,0
2017-08-23T09:10:03.545Z,0
2017-08-23T09:11:05.190Z,0
2017-08-23T09:12:06.755Z,0
2017-08-23T09:13:08.359Z,0
2017-08-23T09:14:10.381Z,0
2017-08-23T09:15:11.963Z,0
2017-08-23T09:16:13.603Z,0
2017-08-23T09:17:15.285Z,0
2017-08-23T09:18:16.957Z,0
2017-08-23T09:19:18.705Z,0
2017-08-23T09:20:20.405Z,0
2017-08-23T09:21:22.002Z,0
2017-08-23T09:22:23.639Z,0
2017-08-23T09:23:27.114Z,0
2017-08-23T09:24:28.893Z,0
2017-08-23T09:25:30.608Z,0
2017-08-23T09:26:33.435Z,0
2017-08-23T09:27:35.145Z,0
2017-08-23T09:28:36.736Z,0
2017-08-23T09:29:39.070Z,0
2017-08-23T09:30:40.793Z,0
2017-08-23T09:31:42.788Z,0
2017-08-23T09:32:44.415Z,0
2017-08-23T09:33:46.354Z,0
2017-08-23T09:34:48.272Z,0
2017-08-23T09:35:49.875Z,0
2017-08-23T09:36:51.614Z,0
2017-08-23T09:37:53.454Z,0
2017-08-23T09:38:55.166Z,0
2017-08-23T09:39:56.852Z,0
2017-08-23T09:40:58.601Z,0
2017-08-23T09:42:00.232Z,0
2017-08-23T09:43:01.976Z,0
2017-08-23T09:44:03.605Z,0
2017-08-23T09:45:05.198Z,0
2017-08-23T09:46:06.922Z,0
2017-08-23T09:47:08.570Z,0
2017-08-23T09:48:10.159Z,0
2017-08-23T09:49:13.113Z,0
2017-08-23T09:50:15.209Z,0
2017-08-23T09:51:17.339Z,0
2017-08-23T09:52:19.749Z,0
2017-08-23T09:53:21.865Z,0
2017-08-23T09:54:23.974Z,0
2017-08-23T09:55:26.189Z,0
2017-08-23T09:56:29.043Z,0
2017-08-23T09:57:31.286Z,0
2017-08-23T09:58:34.096Z,0
2017-08-23T09:59:36.740Z,0
2017-08-23T10:01:51.391Z,2925
2017-08-23T10:02:54.272Z,2930
2017-08-23T10:03:56.538Z,2767
2017-08-23T10:04:58.540Z,2773
2017-08-23T10:06:00.635Z,2570
2017-08-23T10:07:02.820Z,3065
2017-08-23T10:08:05.468Z,3048
2017-08-23T10:09:07.300Z,2604
2017-08-23T10:10:08.989Z,3048
2017-08-23T10:11:11.135Z,3015
2017-08-23T10:12:14.038Z,3105
2017-08-23T10:13:16.220Z,3127
2017-08-23T10:14:18.443Z,3195
2017-08-23T10:15:20.716Z,3290
2017-08-23T10:16:23.188Z,3121
2017-08-23T10:17:24.915Z,3082
2017-08-23T10:18:26.626Z,3133
2017-08-23T10:19:28.802Z,3166
2017-08-23T10:20:30.492Z,3082
2017-08-23T10:21:32.288Z,3026
2017-08-23T10:22:33.905Z,2953
2017-08-23T10:23:35.515Z,2835
2017-08-23T10:24:37.206Z,2975
2017-08-23T10:25:39.424Z,2992
2017-08-23T10:26:41.604Z,2930
2017-08-23T10:27:43.203Z,3037
2017-08-23T10:28:44.946Z,2981
2017-08-23T10:29:46.487Z,3037
2017-08-23T10:30:48.118Z,3110
2017-08-23T10:31:49.789Z,3161
2017-08-23T10:32:51.433Z,3217
2017-08-23T10:33:53.010Z,3060
2017-08-23T10:34:54.648Z,3166
2017-08-23T10:35:56.264Z,3256
2017-08-23T10:36:57.863Z,3324
2017-08-23T10:37:59.459Z,3099
2017-08-23T10:39:01.110Z,3150
2017-08-23T10:40:02.829Z,3335
2017-08-23T10:41:04.556Z,3414
2017-08-23T10:42:06.344Z,3358
2017-08-23T10:43:07.971Z,3335
2017-08-23T10:44:09.596Z,3363
2017-08-23T10:45:11.256Z,3330
2017-08-23T10:46:12.873Z,3285
2017-08-23T10:47:14.588Z,3408
2017-08-23T10:48:16.344Z,3251
2017-08-23T10:49:17.945Z,3121
2017-08-23T10:50:19.671Z,3256
2017-08-23T10:51:21.323Z,3301
2017-08-23T10:52:22.962Z,3352
2017-08-23T10:53:24.792Z,3363
2017-08-23T10:54:26.430Z,3403
2017-08-23T10:55:28.239Z,3504
2017-08-23T10:56:30.040Z,3571
2017-08-23T10:57:31.607Z,3470
2017-08-23T10:58:33.194Z,3465
2017-08-23T10:59:34.917Z,3549
2017-08-23T11:00:36.581Z,3414
2017-08-23T11:01:38.197Z,3346
2017-08-23T11:02:39.882Z,3397
2017-08-23T11:03:41.546Z,3324
2017-08-23T11:04:43.252Z,3341
2017-08-23T11:05:44.909Z,3397
2017-08-23T11:06:46.601Z,3408
2017-08-23T11:07:48.223Z,3408
2017-08-23T11:08:49.859Z,3375
2017-08-23T11:09:51.505Z,3313
2017-08-23T11:10:53.202Z,3324
2017-08-23T11:11:55.042Z,3414
2017-08-23T11:12:56.799Z,3442
2017-08-23T11:13:58.801Z,3223
2017-08-23T11:15:00.698Z,3048
2017-08-23T11:16:02.473Z,3150
2017-08-23T11:17:04.362Z,3324
2017-08-23T11:18:06.290Z,3234
2017-08-23T11:19:08.003Z,3223
2017-08-23T11:20:09.673Z,3335
2017-08-23T11:21:11.449Z,3211
2017-08-23T11:22:13.167Z,3324
2017-08-23T11:23:14.852Z,3352
2017-08-23T11:24:16.646Z,3279
2017-08-23T11:25:19.170Z,3155
2017-08-23T11:26:21.565Z,3093
2017-08-23T11:27:26.112Z,3031
2017-08-23T11:28:27.823Z,3240
2017-08-23T11:29:29.560Z,3256
2017-08-23T11:30:31.233Z,3161
2017-08-23T11:31:33.099Z,3251
2017-08-23T11:32:34.771Z,3307
2017-08-23T11:33:36.515Z,3273
2017-08-23T11:34:38.267Z,3301
2017-08-23T11:35:39.871Z,3127
2017-08-23T11:36:41.615Z,3183
2017-08-23T11:37:43.383Z,3166
2017-08-23T11:38:45.033Z,3082
2017-08-23T11:39:46.701Z,3121
2017-08-23T11:40:48.612Z,3105
2017-08-23T11:41:50.389Z,3206
2017-08-23T11:42:52.263Z,3251
2017-08-23T11:43:54.447Z,3105
2017-08-23T11:44:56.050Z,3088
2017-08-23T11:45:58.108Z,3189
2017-08-23T11:47:00.436Z,3116
2017-08-23T11:48:02.724Z,3031
2017-08-23T11:49:05.280Z,2975
2017-08-23T11:50:08.013Z,2750
2017-08-23T11:51:10.886Z,2739
2017-08-23T11:52:13.489Z,2874
2017-08-23T11:53:15.701Z,3037
2017-08-23T11:54:18.405Z,3037
2017-08-23T11:55:21.141Z,2953
2017-08-23T11:56:23.629Z,2739
2017-08-23T11:57:25.871Z,2565
2017-08-23T11:58:28.363Z,2503
2017-08-23T11:59:30.739Z,2486
2017-08-23T12:00:33.351Z,2531
2017-08-23T12:01:35.530Z,2570
2017-08-23T12:02:37.583Z,2643
2017-08-23T12:03:39.365Z,2604
2017-08-23T12:04:41.256Z,2745
2017-08-23T12:05:43.011Z,2840
2017-08-23T12:06:44.708Z,2756
2017-08-23T12:07:47.105Z,2525
2017-08-23T12:08:49.483Z,2491
2017-08-23T12:09:51.832Z,2604
2017-08-23T12:10:54.410Z,2739
2017-08-23T12:11:57.511Z,2812
2017-08-23T12:13:00.387Z,2694
2017-08-23T12:14:03.405Z,2728
2017-08-23T12:15:06.400Z,2598
2017-08-23T12:16:08.886Z,2025
2017-08-23T12:17:11.169Z,1546
2017-08-23T12:18:13.562Z,1423
2017-08-23T12:19:15.811Z,1411
2017-08-23T12:20:17.910Z,1417
2017-08-23T12:21:19.511Z,1417
2017-08-23T12:22:21.200Z,1428
2017-08-23T12:23:23.256Z,1423
2017-08-23T12:24:25.813Z,1445
2017-08-23T12:25:28.090Z,1468
2017-08-23T12:26:30.477Z,1485
2017-08-23T12:27:33.175Z,1507
2017-08-23T12:28:35.577Z,1535
2017-08-23T12:29:37.989Z,1541
2017-08-23T12:30:39.656Z,1552
2017-08-23T12:31:42.076Z,1558
2017-08-23T12:32:44.232Z,1575
2017-08-23T12:33:46.376Z,1603
2017-08-23T12:34:48.541Z,1620
2017-08-23T12:35:50.586Z,1636
2017-08-23T12:36:52.551Z,1648
2017-08-23T12:37:54.607Z,1653
2017-08-23T12:38:56.431Z,1676
2017-08-23T12:39:58.016Z,1676
2017-08-23T12:40:59.674Z,1693
2017-08-23T12:42:01.519Z,1704
2017-08-23T12:43:03.276Z,1704
2017-08-23T12:44:05.064Z,1710
2017-08-23T12:45:06.766Z,1721
2017-08-23T12:46:08.396Z,1738
2017-08-23T12:47:10.275Z,1743
2017-08-23T12:48:12.620Z,1749
2017-08-23T12:49:14.334Z,1755
2017-08-23T12:50:16.134Z,1771
2017-08-23T12:51:17.839Z,1783
2017-08-23T12:52:19.661Z,1805
2017-08-23T12:53:21.631Z,1816
2017-08-23T12:54:23.445Z,1822
2017-08-23T12:55:25.403Z,1822
2017-08-23T12:56:27.285Z,1828
2017-08-23T12:57:29.254Z,1811
2017-08-23T12:58:31.131Z,1816
2017-08-23T12:59:32.802Z,1828
2017-08-23T13:00:34.392Z,1839
2017-08-23T13:01:35.982Z,1839
2017-08-23T13:02:37.600Z,1839
2017-08-23T13:03:39.196Z,1828
2017-08-23T13:04:40.825Z,1822
2017-08-23T13:05:42.398Z,1822
2017-08-23T13:06:44.007Z,1816
2017-08-23T13:07:45.666Z,1811
2017-08-23T13:08:47.280Z,1811
2017-08-23T13:09:48.985Z,1783
2017-08-23T13:10:50.540Z,1771
2017-08-23T13:11:52.209Z,1766
2017-08-23T13:12:53.890Z,1755
2017-08-23T13:13:55.535Z,1743
2017-08-23T13:14:57.148Z,1710
2017-08-23T13:15:58.714Z,1687
2017-08-23T13:17:00.360Z,1681
2017-08-23T13:18:01.996Z,1659
2017-08-23T13:19:03.619Z,1642
2017-08-23T13:20:05.204Z,1636
2017-08-23T13:21:06.832Z,1625
2017-08-23T13:22:08.433Z,1603
2017-08-23T13:23:10.010Z,1597
2017-08-23T13:24:11.649Z,1580
2017-08-23T13:25:13.231Z,1575
2017-08-23T13:26:14.840Z,1558
2017-08-23T13:27:16.533Z,1552
2017-08-23T13:28:18.188Z,1541
2017-08-23T13:29:19.802Z,1524
2017-08-23T13:30:21.414Z,1513
2017-08-23T13:31:23.104Z,1513
2017-08-23T13:32:24.702Z,1513
2017-08-23T13:33:26.339Z,1518
2017-08-23T13:34:27.942Z,1513
2017-08-23T13:35:29.560Z,1524
2017-08-23T13:36:31.272Z,1546
2017-08-23T13:37:32.944Z,1552
2017-08-23T13:38:34.539Z,1591
2017-08-23T13:39:36.276Z,1620
2017-08-23T13:40:37.988Z,1597
2017-08-23T13:41:39.727Z,1783
2017-08-23T13:42:41.430Z,2053
2017-08-23T13:43:43.064Z,2030
2017-08-23T13:44:44.660Z,2233
2017-08-23T13:45:46.423Z,2525
2017-08-23T13:46:48.125Z,2666
2017-08-23T13:47:49.738Z,2446
2017-08-23T13:48:51.397Z,2131
2017-08-23T13:49:53.143Z,2041
2017-08-23T13:50:54.805Z,2030
2017-08-23T13:51:56.443Z,1873
2017-08-23T13:52:58.062Z,1811
2017-08-23T13:53:59.687Z,1906
2017-08-23T13:55:01.343Z,1715
2017-08-23T13:56:03.002Z,1816
2017-08-23T13:57:04.684Z,1861
2017-08-23T13:58:06.338Z,2008
2017-08-23T13:59:08.050Z,1873
2017-08-23T14:00:09.622Z,1794
2017-08-23T14:01:51.609Z,1980
2017-08-23T14:02:53.387Z,2019
2017-08-23T14:03:55.040Z,1996
2017-08-23T14:04:56.691Z,1766
2017-08-23T14:05:58.283Z,1698
2017-08-23T14:06:59.897Z,1614
2017-08-23T14:08:01.528Z,1597
2017-08-23T14:09:03.262Z,1755
2017-08-23T14:10:04.876Z,1783
2017-08-23T14:11:06.482Z,1732
2017-08-23T14:12:08.274Z,1794
2017-08-23T14:13:09.995Z,1648
2017-08-23T14:14:11.705Z,1698
2017-08-23T14:15:13.413Z,1552
2017-08-23T14:16:15.121Z,1563
2017-08-23T14:17:16.887Z,1580
2017-08-23T14:18:18.570Z,1636
2017-08-23T14:19:20.173Z,1434
2017-08-23T14:20:21.893Z,1524
2017-08-23T14:21:23.540Z,1710
2017-08-23T14:22:25.289Z,1665
2017-08-23T14:23:27.037Z,1648
2017-08-23T14:24:28.698Z,1653
2017-08-23T14:25:30.439Z,1428
2017-08-23T14:26:32.111Z,1546
2017-08-23T14:27:33.753Z,1597
2017-08-23T14:28:35.394Z,1479
2017-08-23T14:29:37.108Z,1597